Startpagina
METAR-TAF:

METAR-TAF

Vliegvelden :

Bornholms Lufthavn

Rønne, Denemarken

breedte: 55-04N, lengte: 014-45E, hoogte: 16 m

Actueel weer

Dit bericht is 33 minuten geleden gemaakt, om 14:20 UTC
Wind 7 kt uit het noorden
Temperatuur 3°C
Vochtigheid 81%
Druk 991 hPa
Zicht 10 km of meer

METAR: EKRN 261420Z AUTO 35007KT 9999 OVC020/// 03/M00 Q0991

Tijdstip: 15:53 (14:53 UTC)

Verwachting

Dit bericht is 41 minuten geleden gemaakt, om 14:12 UTC
Verwachting geldig van 26 om 15 UTC tot 26 om 23 UTC
Wind 10 kt uit het noordwesten
Zicht 10 km of meer
Gebroken wolken op 2000 ft

TAF: EKRN 261412Z 2615/2623 32010KT 9999 BKN020

Waarnemingen en weersverwachtingen van meer dan 4000 vliegvelden (METAR en TAF).

De beschikbare stations zijn de gele en rode punten op de kaart.

Ga met uw muis naar het station om de naam te zien.

Klik dan om waarnemingen en weersverwachtingen te zien.

kaart wijzigen: klik op de groene knoppen met een zwart kruis om in te zoomen, op de groene knop met een streepje om uit te zoomen of op de groene pijlen voor aangrenzende kaarten.


METAR-TAF: